createdAt,value
2019-04-16T00:01:31.228Z,5.40
2019-04-16T00:10:18.484Z,5.20
2019-04-16T00:13:02.124Z,5.10
2019-04-16T00:15:31.691Z,5.10
2019-04-16T00:18:01.104Z,5.10
2019-04-16T00:20:36.678Z,5.00
2019-04-16T00:23:11.077Z,5.00
2019-04-16T00:25:40.554Z,5.00
2019-04-16T00:28:09.963Z,5.00
2019-04-16T00:30:39.354Z,5.00
2019-04-16T00:33:10.714Z,5.00
2019-04-16T00:35:40.140Z,4.90
2019-04-16T00:38:09.708Z,5.00
2019-04-16T00:40:39.199Z,5.00
2019-04-16T00:43:08.675Z,5.00
2019-04-16T00:45:38.151Z,4.90
2019-04-16T00:48:07.545Z,4.90
2019-04-16T00:50:37.032Z,4.90
2019-04-16T00:53:08.062Z,4.90
2019-04-16T00:55:37.577Z,4.90
2019-04-16T00:58:06.955Z,4.90
2019-04-16T01:00:36.504Z,4.80
2019-04-16T01:03:05.935Z,4.80
2019-04-16T01:05:35.860Z,4.80
2019-04-16T01:08:05.265Z,4.80
2019-04-16T01:10:36.331Z,4.80
2019-04-16T01:13:05.807Z,4.70
2019-04-16T01:15:35.282Z,4.70
2019-04-16T01:18:08.110Z,4.70
2019-04-16T01:20:36.000Z,4.70
2019-04-16T01:23:05.960Z,4.70
2019-04-16T01:25:35.429Z,4.70
2019-04-16T01:28:15.231Z,4.70
2019-04-16T01:30:46.355Z,4.60
2019-04-16T01:33:24.377Z,4.60
2019-04-16T01:36:11.725Z,4.60
2019-04-16T01:38:49.076Z,4.60
2019-04-16T01:41:21.964Z,4.60
2019-04-16T01:43:50.819Z,4.50
2019-04-16T01:46:20.240Z,4.50
2019-04-16T01:48:49.681Z,4.50
2019-04-16T01:51:22.602Z,4.50
2019-04-16T01:53:52.423Z,4.40
2019-04-16T01:56:22.496Z,4.40
2019-04-16T01:58:51.932Z,4.30
2019-04-16T02:01:21.406Z,4.30
2019-04-16T02:03:50.987Z,4.30
2019-04-16T02:06:20.396Z,4.30
2019-04-16T02:08:49.893Z,4.30
2019-04-16T02:11:19.291Z,4.30
2019-04-16T02:13:48.847Z,4.30
2019-04-16T02:16:18.319Z,4.30
2019-04-16T02:18:47.756Z,4.20
2019-04-16T02:21:17.158Z,4.30
2019-04-16T02:23:49.372Z,4.30
2019-04-16T02:26:20.634Z,4.30
2019-04-16T02:28:50.018Z,4.30
2019-04-16T02:31:19.479Z,4.30
2019-04-16T02:33:51.807Z,4.10
2019-04-16T02:36:21.038Z,4.00
2019-04-16T02:38:53.262Z,3.90
2019-04-16T02:41:25.057Z,3.80
2019-04-16T02:43:54.568Z,3.90
2019-04-16T02:46:30.861Z,3.90
2019-04-16T02:48:55.538Z,3.90
2019-04-16T02:51:26.747Z,3.90
2019-04-16T02:54:01.095Z,3.90
2019-04-16T02:56:44.693Z,3.80
2019-04-16T02:59:21.880Z,3.80
2019-04-16T03:02:02.185Z,3.80
2019-04-16T03:04:48.685Z,3.80
2019-04-16T03:07:18.616Z,3.80
2019-04-16T03:10:00.531Z,3.80
2019-04-16T03:12:20.877Z,3.80
2019-04-16T03:14:50.538Z,3.70
2019-04-16T03:17:30.400Z,3.60
2019-04-16T03:20:02.639Z,3.50
2019-04-16T03:22:33.522Z,3.40
2019-04-16T03:25:03.665Z,3.40
2019-04-16T03:27:33.127Z,3.40
2019-04-16T03:30:05.078Z,3.40
2019-04-16T03:32:36.297Z,3.40
2019-04-16T03:35:06.422Z,3.40
2019-04-16T03:37:37.423Z,3.40
2019-04-16T03:40:16.257Z,3.40
2019-04-16T03:42:40.048Z,3.40
2019-04-16T03:45:09.953Z,3.40
2019-04-16T03:47:41.427Z,3.40
2019-04-16T03:50:11.868Z,3.30
2019-04-16T03:52:45.461Z,3.30
2019-04-16T03:55:12.465Z,3.30
2019-04-16T03:57:43.487Z,3.20
2019-04-16T04:00:14.993Z,3.30
2019-04-16T04:02:44.647Z,3.20
2019-04-16T04:05:14.125Z,3.20
2019-04-16T04:07:44.197Z,3.20
2019-04-16T04:10:28.855Z,3.20
2019-04-16T04:12:46.593Z,3.20
2019-04-16T04:15:16.431Z,3.20
2019-04-16T04:17:46.315Z,3.20
2019-04-16T04:20:18.164Z,3.20
2019-04-16T04:22:47.010Z,3.20
2019-04-16T04:25:16.512Z,3.10
2019-04-16T04:27:46.765Z,3.10
2019-04-16T04:30:19.057Z,3.10
2019-04-16T04:32:48.524Z,3.10
2019-04-16T04:35:21.738Z,3.10
2019-04-16T04:37:49.899Z,3.10
2019-04-16T04:40:19.349Z,3.10
2019-04-16T04:42:48.823Z,3.10
2019-04-16T04:45:18.183Z,3.10
2019-04-16T04:47:51.278Z,3.10
2019-04-16T04:50:18.915Z,3.10
2019-04-16T04:52:49.916Z,3.00
2019-04-16T04:55:19.383Z,3.00
2019-04-16T04:57:48.934Z,3.00
2019-04-16T05:00:18.635Z,3.10
2019-04-16T05:02:48.061Z,3.10
2019-04-16T05:05:25.857Z,3.10
2019-04-16T05:07:59.673Z,3.20
2019-04-16T05:10:26.750Z,3.20
2019-04-16T05:12:56.178Z,3.20
2019-04-16T05:15:26.360Z,3.20
2019-04-16T05:17:56.746Z,3.20
2019-04-16T05:20:29.650Z,3.30
2019-04-16T05:22:58.109Z,3.30
2019-04-16T05:25:32.906Z,3.40
2019-04-16T05:27:59.040Z,3.40
2019-04-16T05:30:28.448Z,3.40
2019-04-16T05:32:57.926Z,3.50
2019-04-16T05:35:27.637Z,3.60
2019-04-16T05:37:57.055Z,3.60
2019-04-16T05:40:28.034Z,3.70
2019-04-16T05:42:58.962Z,3.70
2019-04-16T05:45:34.383Z,3.80
2019-04-16T05:48:02.714Z,3.80
2019-04-16T05:50:32.294Z,3.80
2019-04-16T05:53:01.696Z,3.90
2019-04-16T05:55:50.532Z,3.90
2019-04-16T05:58:20.232Z,3.90
2019-04-16T06:00:54.343Z,4.00
2019-04-16T06:03:23.895Z,4.10
2019-04-16T06:05:53.382Z,4.20
2019-04-16T06:08:22.844Z,4.20
2019-04-16T06:10:52.214Z,4.30
2019-04-16T06:13:23.273Z,4.30
2019-04-16T06:15:54.809Z,4.40
2019-04-16T06:18:37.959Z,4.50
2019-04-16T06:21:25.741Z,4.50
2019-04-16T06:24:04.108Z,4.60
2019-04-16T06:26:35.430Z,4.60
2019-04-16T06:29:06.753Z,4.70
2019-04-16T06:31:44.032Z,4.70
2019-04-16T06:34:18.297Z,4.90
2019-04-16T06:37:05.738Z,4.90
2019-04-16T06:39:48.936Z,5.00
2019-04-16T06:42:22.339Z,5.10
2019-04-16T06:44:55.744Z,5.20
2019-04-16T06:47:41.797Z,5.20
2019-04-16T06:50:31.900Z,5.40
2019-04-16T06:53:13.434Z,5.30
2019-04-16T06:55:50.515Z,5.40
2019-04-16T06:58:28.063Z,5.60
2019-04-16T07:00:59.675Z,5.60
2019-04-16T07:03:47.208Z,5.70
2019-04-16T07:06:36.316Z,5.80
2019-04-16T07:09:11.224Z,5.90
2019-04-16T07:11:53.801Z,5.90
2019-04-16T07:14:15.712Z,6.00
2019-04-16T07:16:44.847Z,6.10
2019-04-16T07:19:16.658Z,6.20
2019-04-16T07:21:48.711Z,6.20
2019-04-16T07:24:16.552Z,6.40
2019-04-16T07:26:48.100Z,6.30
2019-04-16T07:29:21.354Z,6.40
2019-04-16T07:31:55.158Z,6.40
2019-04-16T07:34:31.757Z,6.40
2019-04-16T07:37:05.847Z,6.60
2019-04-16T07:39:53.910Z,6.70
2019-04-16T07:42:27.723Z,6.80
2019-04-16T07:45:16.928Z,6.70
2019-04-16T07:48:07.010Z,6.90
2019-04-16T07:50:47.260Z,6.90
2019-04-16T07:53:18.334Z,7.10
2019-04-16T07:55:49.464Z,7.10
2019-04-16T07:58:19.030Z,7.10
2019-04-16T08:00:48.510Z,7.50
2019-04-16T08:03:17.952Z,7.60
2019-04-16T08:05:47.353Z,7.90
2019-04-16T08:08:16.859Z,7.70
2019-04-16T08:10:46.406Z,7.80
2019-04-16T08:13:19.720Z,7.80
2019-04-16T08:15:49.220Z,8.00
2019-04-16T08:18:18.807Z,7.90
2019-04-16T08:21:00.462Z,7.90
2019-04-16T08:23:40.034Z,8.10
2019-04-16T08:26:12.999Z,8.20
2019-04-16T08:28:40.844Z,8.30
2019-04-16T08:31:12.894Z,8.30
2019-04-16T08:33:42.949Z,8.40
2019-04-16T08:36:12.494Z,8.60
2019-04-16T08:38:42.836Z,8.50
2019-04-16T08:41:13.252Z,8.80
2019-04-16T08:43:44.700Z,8.80
2019-04-16T08:46:14.159Z,9.00
2019-04-16T08:48:48.834Z,8.90
2019-04-16T08:51:14.792Z,9.00
2019-04-16T08:53:46.766Z,9.10
2019-04-16T08:56:15.619Z,9.30
2019-04-16T08:58:45.058Z,9.40
2019-04-16T09:01:18.788Z,9.50
2019-04-16T09:03:48.164Z,9.60
2019-04-16T09:06:17.696Z,9.60
2019-04-16T09:08:54.604Z,9.80
2019-04-16T09:11:24.370Z,9.80
2019-04-16T09:14:01.175Z,9.90
2019-04-16T09:16:32.314Z,10.00
2019-04-16T09:19:06.017Z,10.30
2019-04-16T09:21:35.475Z,10.10
2019-04-16T09:24:09.937Z,10.30
2019-04-16T09:26:43.927Z,10.60
2019-04-16T09:29:31.687Z,10.80
2019-04-16T09:32:05.609Z,10.70
2019-04-16T09:35:07.425Z,11.00
2019-04-16T09:37:35.609Z,11.00
2019-04-16T09:40:17.756Z,11.10
2019-04-16T09:42:42.225Z,11.20
2019-04-16T09:45:13.593Z,11.30
2019-04-16T09:47:44.871Z,11.20
2019-04-16T09:50:14.422Z,11.30
2019-04-16T09:52:43.811Z,11.80
2019-04-16T09:55:15.215Z,11.70
2019-04-16T09:57:44.543Z,11.50
2019-04-16T10:00:27.844Z,11.60
2019-04-16T10:03:00.726Z,11.70
2019-04-16T10:05:30.274Z,12.00
2019-04-16T10:08:00.417Z,12.20
2019-04-16T10:10:29.903Z,12.30
2019-04-16T10:12:59.323Z,12.60
2019-04-16T10:15:28.949Z,12.70
2019-04-16T10:18:01.041Z,12.50
2019-04-16T10:20:29.756Z,12.50
2019-04-16T10:23:02.373Z,12.50
2019-04-16T10:25:34.607Z,12.80
2019-04-16T10:28:05.755Z,13.10
2019-04-16T10:30:37.068Z,13.00
2019-04-16T10:33:06.595Z,13.20
2019-04-16T10:35:36.794Z,13.30
2019-04-16T10:38:08.051Z,13.50
2019-04-16T10:40:39.167Z,13.10
2019-04-16T10:43:13.173Z,13.10
2019-04-16T10:46:00.984Z,13.20
2019-04-16T10:48:35.111Z,13.30
2019-04-16T10:51:09.302Z,13.60
2019-04-16T10:53:50.040Z,13.20
2019-04-16T10:56:37.690Z,13.50
2019-04-16T10:59:25.291Z,13.50
2019-04-16T11:02:11.608Z,13.80
2019-04-16T11:05:03.031Z,14.00
2019-04-16T11:07:36.007Z,14.10
2019-04-16T11:10:07.227Z,14.30
2019-04-16T11:12:36.679Z,14.10
2019-04-16T11:15:06.758Z,14.10
2019-04-16T11:17:36.245Z,14.30
2019-04-16T11:20:08.572Z,14.50
2019-04-16T11:22:38.012Z,14.40
2019-04-16T11:25:07.663Z,14.10
2019-04-16T11:27:38.771Z,14.40
2019-04-16T11:30:10.358Z,14.30
2019-04-16T11:32:40.275Z,14.40
2019-04-16T11:35:13.028Z,14.40
2019-04-16T11:37:43.726Z,14.70
2019-04-16T11:40:12.299Z,14.90
2019-04-16T11:42:42.172Z,14.70
2019-04-16T11:45:14.516Z,14.90
2019-04-16T11:47:44.261Z,15.30
2019-04-16T11:50:13.835Z,14.90
2019-04-16T11:52:43.447Z,14.80
2019-04-16T11:55:13.002Z,15.20
2019-04-16T11:57:42.418Z,15.50
2019-04-16T12:00:20.499Z,15.50
2019-04-16T12:02:51.633Z,15.40
2019-04-16T12:05:25.783Z,15.30
2019-04-16T12:08:02.973Z,15.60
2019-04-16T12:10:39.651Z,15.50
2019-04-16T12:13:13.537Z,15.80
2019-04-16T12:16:07.174Z,15.60
2019-04-16T12:18:38.826Z,15.60
2019-04-16T12:21:12.959Z,15.70
2019-04-16T12:23:46.961Z,15.90
2019-04-16T12:26:33.259Z,16.00
2019-04-16T12:29:04.732Z,15.60
2019-04-16T12:31:41.768Z,15.90
2019-04-16T12:34:15.721Z,16.00
2019-04-16T12:37:03.174Z,16.30
2019-04-16T12:39:36.026Z,16.20
2019-04-16T12:42:09.076Z,16.00
2019-04-16T12:44:45.588Z,16.30
2019-04-16T12:47:16.245Z,16.30
2019-04-16T12:49:47.343Z,16.00
2019-04-16T12:52:24.596Z,16.10
2019-04-16T12:55:00.177Z,16.30
2019-04-16T12:57:40.701Z,16.20
2019-04-16T13:00:31.673Z,16.40
2019-04-16T13:03:03.007Z,16.30
2019-04-16T13:05:37.129Z,16.20
2019-04-16T13:08:17.485Z,16.30
2019-04-16T13:10:54.765Z,16.80
2019-04-16T13:13:42.354Z,16.50
2019-04-16T13:16:19.327Z,16.50
2019-04-16T13:19:08.748Z,17.00
2019-04-16T13:21:39.937Z,16.90
2019-04-16T13:24:22.839Z,17.00
2019-04-16T13:26:59.750Z,16.90
2019-04-16T13:29:30.638Z,16.80
2019-04-16T13:32:00.094Z,17.20
2019-04-16T13:34:29.822Z,17.20
2019-04-16T13:37:00.670Z,17.30
2019-04-16T13:39:35.022Z,16.90
2019-04-16T13:42:04.569Z,16.90
2019-04-16T13:44:37.720Z,16.50
2019-04-16T13:47:07.063Z,16.70
2019-04-16T13:49:47.452Z,16.70
2019-04-16T13:52:20.574Z,16.70
2019-04-16T13:54:56.171Z,16.60
2019-04-16T13:57:27.596Z,16.70
2019-04-16T14:00:02.994Z,16.70
2019-04-16T14:02:39.285Z,16.80
2019-04-16T14:05:10.872Z,16.80
2019-04-16T14:07:40.649Z,16.80
2019-04-16T14:10:10.555Z,16.60
2019-04-16T14:12:42.558Z,16.70
2019-04-16T14:15:12.310Z,17.20
2019-04-16T14:17:52.410Z,17.00
2019-04-16T14:20:13.955Z,17.10
2019-04-16T14:22:56.996Z,16.70
2019-04-16T14:25:26.690Z,17.00
2019-04-16T14:28:01.989Z,17.10
2019-04-16T14:30:29.120Z,17.50
2019-04-16T14:33:00.606Z,17.30
2019-04-16T14:35:33.467Z,17.10
2019-04-16T14:38:02.944Z,17.00
2019-04-16T14:40:33.431Z,16.80
2019-04-16T14:43:02.967Z,17.00
2019-04-16T14:45:57.042Z,17.30
2019-04-16T14:48:13.131Z,17.10
2019-04-16T14:50:42.423Z,17.10
2019-04-16T14:53:13.607Z,17.30
2019-04-16T14:55:59.797Z,17.00
2019-04-16T14:58:26.183Z,17.10
2019-04-16T15:00:57.377Z,17.30
2019-04-16T15:03:46.557Z,17.50
2019-04-16T15:06:32.866Z,17.30
2019-04-16T15:09:20.648Z,17.40
2019-04-16T15:12:10.005Z,17.40
2019-04-16T15:14:41.319Z,17.30
2019-04-16T15:17:15.220Z,17.50
2019-04-16T15:19:49.337Z,17.40
2019-04-16T15:22:38.862Z,17.40
2019-04-16T15:25:16.316Z,17.30
2019-04-16T15:27:49.452Z,17.50
2019-04-16T15:30:37.832Z,17.50
2019-04-16T15:33:24.839Z,17.70
2019-04-16T15:35:56.173Z,17.40
2019-04-16T15:38:36.349Z,17.40
2019-04-16T15:41:17.185Z,17.60
2019-04-16T15:43:50.430Z,17.30
2019-04-16T15:46:41.022Z,17.20
2019-04-16T15:49:14.372Z,17.10
2019-04-16T15:51:50.646Z,16.80
2019-04-16T15:54:34.420Z,16.90
2019-04-16T15:57:24.156Z,17.50
2019-04-16T16:00:04.731Z,17.40
2019-04-16T16:02:52.088Z,17.40
2019-04-16T16:05:26.143Z,17.30
2019-04-16T16:07:57.919Z,17.30
2019-04-16T16:10:31.204Z,16.90
2019-04-16T16:13:00.642Z,16.90
2019-04-16T16:15:30.186Z,17.00
2019-04-16T16:17:59.619Z,17.30
2019-04-16T16:20:29.254Z,17.20
2019-04-16T16:22:59.474Z,17.20
2019-04-16T16:25:30.780Z,17.30
2019-04-16T16:28:00.571Z,16.90
2019-04-16T16:30:30.038Z,16.70
2019-04-16T16:32:59.615Z,16.90
2019-04-16T16:35:29.043Z,16.80
2019-04-16T16:37:58.432Z,16.70
2019-04-16T16:40:27.970Z,16.60
2019-04-16T16:42:57.428Z,16.50
2019-04-16T16:45:28.622Z,16.50
2019-04-16T16:47:58.195Z,16.60
2019-04-16T16:50:27.600Z,16.60
2019-04-16T16:52:58.758Z,16.50
2019-04-16T16:55:32.956Z,16.40
2019-04-16T16:58:04.116Z,16.40
2019-04-16T17:00:50.411Z,16.20
2019-04-16T17:03:24.275Z,16.20
2019-04-16T17:05:54.021Z,15.90
2019-04-16T17:08:23.536Z,15.90
2019-04-16T17:10:53.232Z,16.00
2019-04-16T17:13:22.771Z,15.90
2019-04-16T17:15:52.243Z,15.60
2019-04-16T17:18:21.648Z,15.60
2019-04-16T17:20:51.105Z,15.50
2019-04-16T17:23:20.597Z,15.30
2019-04-16T17:25:51.546Z,15.00
2019-04-16T17:28:21.024Z,14.60
2019-04-16T17:30:50.553Z,14.10
2019-04-16T17:33:19.946Z,13.90
2019-04-16T17:35:49.348Z,13.60
2019-04-16T17:38:18.930Z,13.50
2019-04-16T17:40:51.105Z,13.40
2019-04-16T17:43:38.924Z,13.30
2019-04-16T17:46:18.986Z,13.10
2019-04-16T17:48:55.729Z,13.00
2019-04-16T17:51:26.896Z,12.90
2019-04-16T17:54:07.067Z,12.80
2019-04-16T17:56:44.148Z,12.70
2019-04-16T17:59:18.303Z,12.60
2019-04-16T18:01:55.347Z,12.50
2019-04-16T18:04:26.475Z,12.50
2019-04-16T18:06:57.556Z,12.30
2019-04-16T18:09:46.910Z,12.20
2019-04-16T18:12:26.885Z,12.20
2019-04-16T18:15:08.922Z,12.10
2019-04-16T18:17:47.290Z,12.00
2019-04-16T18:20:18.577Z,11.90
2019-04-16T18:22:58.570Z,11.90
2019-04-16T18:25:55.695Z,11.80
2019-04-16T18:28:22.209Z,11.60
2019-04-16T18:30:56.207Z,11.60
2019-04-16T18:33:29.824Z,11.70
2019-04-16T18:36:10.017Z,11.50
2019-04-16T18:39:03.321Z,11.30
2019-04-16T18:41:32.805Z,11.20
2019-04-16T18:44:03.996Z,11.10
2019-04-16T18:46:40.875Z,11.10
2019-04-16T18:49:23.656Z,11.00
2019-04-16T18:51:53.172Z,10.90
2019-04-16T18:54:24.272Z,10.90
2019-04-16T18:56:54.162Z,10.80
2019-04-16T18:59:23.626Z,10.70
2019-04-16T19:01:54.822Z,10.70
2019-04-16T19:04:24.326Z,10.60
2019-04-16T19:06:54.243Z,10.50
2019-04-16T19:09:23.774Z,10.40
2019-04-16T19:11:53.171Z,10.40
2019-04-16T19:14:22.575Z,10.40
2019-04-16T19:16:52.434Z,10.40
2019-04-16T19:19:22.542Z,10.40
2019-04-16T19:21:52.717Z,10.30
2019-04-16T19:24:22.568Z,10.30
2019-04-16T19:26:52.599Z,10.20
2019-04-16T19:29:23.107Z,10.10
2019-04-16T19:31:56.726Z,9.90
2019-04-16T19:34:23.798Z,9.80
2019-04-16T19:36:55.942Z,9.70
2019-04-16T19:39:24.764Z,9.60
2019-04-16T19:41:57.266Z,9.40
2019-04-16T19:44:25.499Z,9.20
2019-04-16T19:46:54.911Z,9.20
2019-04-16T19:49:24.375Z,9.20
2019-04-16T19:51:54.113Z,9.30
2019-04-16T19:54:23.666Z,9.30
2019-04-16T19:56:53.176Z,9.40
2019-04-16T19:59:22.884Z,9.30
2019-04-16T20:01:55.997Z,9.20
2019-04-16T20:04:23.865Z,9.30
2019-04-16T20:06:54.055Z,9.30
2019-04-16T20:09:24.591Z,9.20
2019-04-16T20:11:55.380Z,9.20
2019-04-16T20:14:25.138Z,9.10
2019-04-16T20:16:54.577Z,9.20
2019-04-16T20:19:24.064Z,9.10
2019-04-16T20:21:53.429Z,9.10
2019-04-16T20:24:22.898Z,9.00
2019-04-16T20:26:52.322Z,9.10
2019-04-16T20:29:21.719Z,9.10
2019-04-16T20:31:51.090Z,9.10
2019-04-16T20:34:20.543Z,9.00
2019-04-16T20:36:52.215Z,9.10
2019-04-16T20:39:21.092Z,9.00
2019-04-16T20:41:53.102Z,9.10
2019-04-16T20:44:21.555Z,9.00
2019-04-16T20:46:50.992Z,8.90
2019-04-16T20:49:20.384Z,9.00
2019-04-16T20:51:49.751Z,9.00
2019-04-16T20:54:19.290Z,8.90
2019-04-16T20:56:50.051Z,8.90
2019-04-16T20:59:19.887Z,8.80
2019-04-16T21:01:49.322Z,8.90
2019-04-16T21:04:18.750Z,8.80
2019-04-16T21:06:48.116Z,8.80
2019-04-16T21:09:17.574Z,8.70
2019-04-16T21:11:46.968Z,8.80
2019-04-16T21:14:18.923Z,8.70
2019-04-16T21:16:47.545Z,8.60
2019-04-16T21:19:23.357Z,8.60
2019-04-16T21:21:48.541Z,8.50
2019-04-16T21:24:17.940Z,8.50
2019-04-16T21:26:51.012Z,8.50
2019-04-16T21:29:21.704Z,8.50
2019-04-16T21:31:53.092Z,8.60
2019-04-16T21:34:33.324Z,8.60
2019-04-16T21:37:10.666Z,8.60
2019-04-16T21:39:41.839Z,8.50
2019-04-16T21:42:11.432Z,8.40
2019-04-16T21:44:44.693Z,8.40
2019-04-16T21:47:14.741Z,8.30
2019-04-16T21:49:45.766Z,8.30
2019-04-16T21:52:15.544Z,8.30
2019-04-16T21:54:45.024Z,8.30
2019-04-16T21:57:14.500Z,8.30
2019-04-16T21:59:44.051Z,8.20
2019-04-16T22:02:17.979Z,8.10
2019-04-16T22:04:47.606Z,8.00
2019-04-16T22:07:17.164Z,7.90
2019-04-16T22:09:46.752Z,7.90
2019-04-16T22:12:16.304Z,7.90
2019-04-16T22:14:45.991Z,7.90
2019-04-16T22:17:15.600Z,7.70
2019-04-16T22:19:53.976Z,7.70
2019-04-16T22:22:17.187Z,7.70
2019-04-16T22:24:46.630Z,7.60
2019-04-16T22:27:16.229Z,7.60
2019-04-16T22:29:47.548Z,7.70
2019-04-16T22:32:16.756Z,7.70
2019-04-16T22:34:46.553Z,7.70
2019-04-16T22:37:16.013Z,7.70
2019-04-16T22:39:59.015Z,7.70
2019-04-16T22:42:30.611Z,7.80
2019-04-16T22:45:19.903Z,7.80
2019-04-16T22:47:50.952Z,7.80
2019-04-16T22:50:21.203Z,7.80
2019-04-16T22:52:50.671Z,7.80
2019-04-16T22:55:24.366Z,7.90
2019-04-16T22:57:51.339Z,8.00
2019-04-16T23:00:28.803Z,8.00
2019-04-16T23:03:00.006Z,8.00
2019-04-16T23:05:31.012Z,7.90
2019-04-16T23:08:00.630Z,7.90
2019-04-16T23:10:30.135Z,7.90
2019-04-16T23:13:01.354Z,8.00
2019-04-16T23:15:30.907Z,8.10
2019-04-16T23:18:00.298Z,8.40
2019-04-16T23:20:33.395Z,8.60
2019-04-16T23:23:00.758Z,8.60
2019-04-16T23:25:30.118Z,8.70
2019-04-16T23:27:59.518Z,8.70
2019-04-16T23:30:28.979Z,8.70
2019-04-16T23:33:00.127Z,8.70
2019-04-16T23:35:31.404Z,8.60
2019-04-16T23:38:01.124Z,8.60
2019-04-16T23:40:30.658Z,8.60
2019-04-16T23:43:18.758Z,8.60
2019-04-16T23:45:56.062Z,8.60
2019-04-16T23:48:28.484Z,8.50
2019-04-16T23:51:00.253Z,8.50
2019-04-16T23:53:47.698Z,8.60
2019-04-16T23:56:27.698Z,8.60
2019-04-16T23:59:02.613Z,8.50
